createdAt,value
2023-12-10T00:04:03.654Z,63.25
2023-12-10T00:09:07.687Z,61.10
2023-12-10T00:14:09.488Z,58.72
2023-12-10T00:19:11.689Z,63.30
2023-12-10T00:24:13.634Z,68.82
2023-12-10T00:29:15.593Z,64.57
2023-12-10T00:34:17.524Z,67.13
2023-12-10T00:39:19.236Z,57.75
2023-12-10T00:44:21.290Z,63.85
2023-12-10T00:49:23.327Z,60.67
2023-12-10T00:54:25.646Z,67.50
2023-12-10T00:59:27.633Z,61.78
2023-12-10T01:04:29.521Z,55.00
2023-12-10T01:09:31.511Z,59.63
2023-12-10T01:14:33.327Z,53.67
2023-12-10T01:19:35.381Z,57.75
2023-12-10T01:24:37.411Z,54.60
2023-12-10T01:29:39.308Z,54.08
2023-12-10T01:34:44.513Z,53.30
2023-12-10T01:39:46.614Z,59.20
2023-12-10T01:44:48.589Z,52.20
2023-12-10T01:49:50.538Z,52.75
2023-12-10T01:54:52.270Z,47.45
2023-12-10T01:59:54.536Z,51.55
2023-12-10T02:04:59.083Z,46.60
2023-12-10T02:10:01.595Z,50.40
2023-12-10T02:15:33.204Z,49.30
2023-12-10T02:20:35.034Z,42.90
2023-12-10T02:25:40.789Z,42.45
2023-12-10T02:30:43.292Z,44.43
2023-12-10T02:35:45.358Z,41.10
2023-12-10T02:40:47.043Z,41.55
2023-12-10T02:45:49.242Z,44.15
2023-12-10T02:50:51.776Z,45.35
2023-12-10T02:55:53.522Z,48.38
2023-12-10T03:00:55.800Z,58.17
2023-12-10T03:05:58.208Z,53.65
2023-12-10T03:10:59.971Z,58.97
2023-12-10T03:16:01.863Z,56.03
2023-12-10T03:21:04.481Z,52.33
2023-12-10T03:26:06.375Z,61.85
2023-12-10T03:31:08.336Z,52.53
2023-12-10T03:36:10.431Z,54.60
2023-12-10T03:41:12.199Z,53.40
2023-12-10T03:46:13.961Z,56.45
2023-12-10T03:51:15.842Z,48.53
2023-12-10T03:56:17.590Z,52.38
2023-12-10T04:01:19.996Z,55.00
2023-12-10T04:06:22.137Z,46.33
2023-12-10T04:11:26.983Z,50.47
2023-12-10T04:16:31.045Z,51.38
2023-12-10T04:21:33.280Z,45.90
2023-12-10T04:26:35.413Z,51.40
2023-12-10T04:31:38.379Z,51.95
2023-12-10T04:36:40.313Z,46.78
2023-12-10T04:41:42.297Z,48.03
2023-12-10T04:46:44.312Z,52.85
2023-12-10T04:51:46.145Z,51.38
2023-12-10T04:56:47.879Z,52.78
2023-12-10T05:01:50.088Z,52.85
2023-12-10T05:06:51.979Z,53.25
2023-12-10T05:11:53.753Z,53.83
2023-12-10T05:16:55.638Z,50.70
2023-12-10T05:21:57.894Z,58.05
2023-12-10T05:26:59.889Z,50.97
2023-12-10T05:32:01.650Z,50.47
2023-12-10T05:37:03.612Z,58.42
2023-12-10T05:42:05.791Z,56.90
2023-12-10T05:47:07.616Z,63.22
2023-12-10T05:52:09.871Z,59.42
2023-12-10T05:57:11.646Z,58.67
2023-12-10T06:02:13.432Z,53.72
2023-12-10T06:07:15.239Z,60.78
2023-12-10T06:12:17.826Z,64.88
2023-12-10T06:17:19.929Z,62.53
2023-12-10T06:22:22.353Z,58.45
2023-12-10T06:27:24.239Z,56.88
2023-12-10T06:32:27.510Z,59.90
2023-12-10T06:37:29.639Z,54.25
2023-12-10T06:42:31.812Z,59.67
2023-12-10T06:47:35.771Z,52.55
2023-12-10T06:52:38.138Z,51.63
2023-12-10T06:57:40.113Z,57.22
2023-12-10T07:02:42.316Z,56.28
2023-12-10T07:07:44.359Z,57.58
2023-12-10T07:12:46.351Z,94.70
2023-12-10T07:17:48.323Z,66.60
2023-12-10T07:22:50.251Z,55.13
2023-12-10T07:27:52.222Z,59.10
2023-12-10T07:32:55.042Z,55.15
2023-12-10T07:37:57.041Z,57.33
2023-12-10T07:42:59.502Z,64.82
2023-12-10T07:48:01.665Z,60.13
2023-12-10T07:53:06.066Z,56.35
2023-12-10T07:58:08.296Z,62.60
2023-12-10T08:03:10.131Z,64.88
2023-12-10T08:08:12.323Z,52.78
2023-12-10T08:13:14.099Z,51.03
2023-12-10T08:18:17.534Z,68.25
2023-12-10T08:23:19.432Z,66.65
2023-12-10T08:28:21.332Z,60.88
2023-12-10T08:33:23.376Z,58.15
2023-12-10T08:38:25.392Z,56.42
2023-12-10T08:43:27.251Z,65.07
2023-12-10T08:48:30.449Z,58.45
2023-12-10T08:53:32.652Z,58.47
2023-12-10T08:58:34.673Z,62.15
2023-12-10T09:03:36.867Z,63.28
2023-12-10T09:08:38.816Z,59.95
2023-12-10T09:13:40.751Z,62.28
2023-12-10T09:18:45.161Z,56.95
2023-12-10T09:23:47.166Z,56.08
2023-12-10T09:28:49.043Z,50.85
2023-12-10T09:33:51.266Z,58.15
2023-12-10T09:38:53.392Z,53.47
2023-12-10T09:43:55.203Z,56.17
2023-12-10T09:48:57.756Z,58.17
2023-12-10T09:53:59.683Z,56.67
2023-12-10T09:59:01.612Z,55.45
2023-12-10T10:04:05.237Z,56.20
2023-12-10T10:09:08.417Z,49.13
2023-12-10T10:14:11.926Z,57.25
2023-12-10T10:19:14.801Z,58.92
2023-12-10T10:24:18.431Z,53.20
2023-12-10T10:29:23.867Z,53.90
2023-12-10T10:34:26.463Z,47.20
2023-12-10T10:39:30.711Z,54.47
2023-12-10T10:44:33.220Z,52.83
2023-12-10T10:49:39.317Z,46.85
2023-12-10T10:54:41.949Z,51.58
2023-12-10T10:59:45.052Z,44.47
2023-12-10T11:04:48.801Z,41.58
2023-12-10T11:09:58.389Z,40.28
2023-12-10T11:15:01.543Z,38.17
2023-12-10T11:20:04.620Z,54.40
2023-12-10T11:25:07.658Z,41.42
2023-12-10T11:30:10.271Z,46.33
2023-12-10T11:35:15.434Z,44.33
2023-12-10T11:40:17.927Z,41.28
2023-12-10T11:45:19.958Z,39.03
2023-12-10T11:50:22.170Z,40.92
2023-12-10T11:55:24.235Z,41.13
2023-12-10T12:00:26.397Z,38.38
2023-12-10T12:05:28.399Z,30.55
2023-12-10T12:10:39.256Z,31.98
2023-12-10T12:15:45.732Z,33.42
2023-12-10T12:20:47.905Z,32.88
2023-12-10T12:25:49.832Z,31.80
2023-12-10T12:30:51.737Z,40.85
2023-12-10T12:35:53.684Z,39.15
2023-12-10T12:40:55.622Z,32.72
2023-12-10T12:45:57.465Z,33.97
2023-12-10T12:50:59.310Z,32.63
2023-12-10T12:56:01.133Z,30.48
2023-12-10T13:01:03.096Z,25.23
2023-12-10T13:06:05.314Z,29.65
2023-12-10T13:11:07.160Z,30.08
2023-12-10T13:16:09.139Z,27.70
2023-12-10T13:21:11.168Z,25.80
2023-12-10T13:26:12.984Z,25.38
2023-12-10T13:31:15.061Z,26.42
2023-12-10T13:36:17.217Z,25.50
2023-12-10T13:41:19.067Z,36.65
2023-12-10T13:46:20.881Z,27.80
2023-12-10T13:51:22.755Z,32.75
2023-12-10T13:56:24.536Z,32.97
2023-12-10T14:01:26.803Z,30.83
2023-12-10T14:06:28.663Z,40.80
2023-12-10T14:11:35.256Z,34.90
2023-12-10T14:16:43.881Z,46.38
2023-12-10T14:21:46.104Z,43.05
2023-12-10T14:26:47.984Z,33.95
2023-12-10T14:31:49.781Z,38.70
2023-12-10T14:36:52.187Z,41.33
2023-12-10T14:41:54.025Z,39.45
2023-12-10T14:47:01.184Z,40.40
2023-12-10T14:52:03.127Z,37.03
2023-12-10T14:57:06.799Z,37.15
2023-12-10T15:02:12.120Z,39.55
2023-12-10T15:07:15.210Z,39.53
2023-12-10T15:12:17.346Z,37.13
2023-12-10T15:17:19.309Z,38.47
2023-12-10T15:22:21.793Z,35.83
2023-12-10T15:27:23.712Z,36.03
2023-12-10T15:32:25.869Z,37.72
2023-12-10T15:37:30.059Z,33.47
2023-12-10T15:42:32.067Z,38.78
2023-12-10T15:47:33.782Z,37.40
2023-12-10T15:52:40.727Z,38.55
2023-12-10T15:57:43.718Z,34.13
2023-12-10T16:02:45.565Z,31.90
2023-12-10T16:07:51.873Z,28.38
2023-12-10T16:12:54.564Z,30.77
2023-12-10T16:17:56.517Z,29.55
2023-12-10T16:22:58.983Z,28.60
2023-12-10T16:28:01.090Z,32.80
2023-12-10T16:33:03.632Z,27.27
2023-12-10T16:38:05.456Z,29.55
2023-12-10T16:43:07.885Z,30.98
2023-12-10T16:48:11.162Z,36.10
2023-12-10T16:53:13.099Z,35.78
2023-12-10T16:58:14.846Z,37.75
2023-12-10T17:03:16.774Z,37.90
2023-12-10T17:08:18.578Z,39.72
2023-12-10T17:13:20.315Z,41.17
2023-12-10T17:18:22.292Z,48.10
2023-12-10T17:23:24.100Z,38.55
2023-12-10T17:28:26.048Z,33.85
2023-12-10T17:33:28.061Z,35.72
2023-12-10T17:38:29.872Z,35.33
2023-12-10T17:43:31.684Z,36.88
2023-12-10T17:48:33.541Z,35.92
2023-12-10T17:53:35.706Z,27.85
2023-12-10T17:58:38.084Z,26.88
2023-12-10T18:03:40.245Z,24.80
2023-12-10T18:08:42.352Z,24.70
2023-12-10T18:13:44.830Z,29.00
2023-12-10T18:18:46.976Z,24.38
2023-12-10T18:23:48.981Z,23.35
2023-12-10T18:28:51.296Z,24.30
2023-12-10T18:33:55.210Z,23.10
2023-12-10T18:38:57.542Z,23.95
2023-12-10T18:44:00.222Z,24.73
2023-12-10T18:49:02.946Z,30.50
2023-12-10T18:54:06.044Z,26.60
2023-12-10T18:59:08.830Z,25.63
2023-12-10T19:04:11.612Z,24.40
2023-12-10T19:09:14.691Z,27.00
2023-12-10T19:14:17.103Z,24.80
2023-12-10T19:19:19.656Z,26.75
2023-12-10T19:24:22.638Z,27.05
2023-12-10T19:29:25.195Z,35.20
2023-12-10T19:34:30.445Z,39.63
2023-12-10T19:39:32.404Z,55.33
2023-12-10T19:44:34.957Z,58.92
2023-12-10T19:49:37.821Z,48.00
2023-12-10T19:54:40.573Z,64.93
2023-12-10T19:59:44.139Z,43.30
2023-12-10T20:04:47.298Z,57.42
2023-12-10T20:09:50.203Z,33.03
2023-12-10T20:14:52.976Z,39.83
2023-12-10T20:19:55.736Z,45.72
2023-12-10T20:25:02.828Z,48.92
2023-12-10T20:30:09.417Z,65.72
2023-12-10T20:35:12.012Z,51.90
2023-12-10T20:40:15.173Z,71.53
2023-12-10T20:45:18.156Z,38.72
2023-12-10T20:50:21.686Z,39.05
2023-12-10T20:55:24.281Z,37.97
2023-12-10T21:00:26.295Z,41.75
2023-12-10T21:05:28.290Z,35.08
2023-12-10T21:10:30.160Z,34.33
2023-12-10T21:15:32.219Z,45.78
2023-12-10T21:20:34.047Z,48.42
2023-12-10T21:25:36.335Z,34.47
2023-12-10T21:30:38.188Z,55.05
2023-12-10T21:35:40.181Z,26.73
2023-12-10T21:40:41.990Z,50.65
2023-12-10T21:45:43.942Z,34.85
2023-12-10T21:50:48.993Z,27.92
2023-12-10T21:55:50.679Z,40.28
2023-12-10T22:00:58.060Z,31.10
2023-12-10T22:05:59.878Z,63.88
2023-12-10T22:11:01.719Z,28.13
2023-12-10T22:16:03.734Z,60.40
2023-12-10T22:21:07.817Z,48.67
2023-12-10T22:26:10.161Z,35.25
2023-12-10T22:31:12.145Z,24.10
2023-12-10T22:36:14.014Z,124.15
2023-12-10T22:41:16.137Z,21.92
2023-12-10T22:46:18.157Z,23.55
2023-12-10T22:51:20.231Z,28.83
2023-12-10T22:56:21.900Z,31.80
2023-12-10T23:01:23.899Z,31.48
2023-12-10T23:06:26.232Z,20.95
2023-12-10T23:11:28.092Z,29.90
2023-12-10T23:16:29.977Z,22.48
2023-12-10T23:21:31.812Z,23.73
2023-12-10T23:26:35.225Z,24.83
2023-12-10T23:31:36.984Z,38.92
2023-12-10T23:36:39.074Z,21.30
2023-12-10T23:41:41.221Z,28.67
2023-12-10T23:46:46.256Z,23.58
2023-12-10T23:51:48.096Z,21.15
2023-12-10T23:56:49.826Z,19.10
